sensor_id;sensor_type;location;lat;lon;timestamp;pressure;altitude;pressure_sealevel;temperature;humidity
74329;BME280;62749;51.982;5.916;2023-04-24T00:00:08;99648.47;;;10.04;90.56
74329;BME280;62749;51.982;5.916;2023-04-24T00:02:39;99653.75;;;10.04;90.78
74329;BME280;62749;51.982;5.916;2023-04-24T00:05:15;99656.22;;;10.07;90.29
74329;BME280;62749;51.982;5.916;2023-04-24T00:07:45;99659.81;;;10.06;91.05
74329;BME280;62749;51.982;5.916;2023-04-24T00:10:14;99657.22;;;10.04;90.73
74329;BME280;62749;51.982;5.916;2023-04-24T00:12:44;99647.63;;;10.03;90.46
74329;BME280;62749;51.982;5.916;2023-04-24T00:15:13;99650.25;;;10.03;90.02
74329;BME280;62749;51.982;5.916;2023-04-24T00:17:42;99667.13;;;10.01;91.10
74329;BME280;62749;51.982;5.916;2023-04-24T00:20:15;99654.69;;;10.03;91.11
74329;BME280;62749;51.982;5.916;2023-04-24T00:22:45;99669.50;;;10.05;90.62
74329;BME280;62749;51.982;5.916;2023-04-24T00:25:14;99671.97;;;10.08;90.22
74329;BME280;62749;51.982;5.916;2023-04-24T00:27:44;99662.34;;;10.07;90.72
74329;BME280;62749;51.982;5.916;2023-04-24T00:30:13;99681.91;;;10.03;91.33
74329;BME280;62749;51.982;5.916;2023-04-24T00:32:43;99676.56;;;10.05;91.01
74329;BME280;62749;51.982;5.916;2023-04-24T00:35:15;99672.00;;;9.92;90.75
74329;BME280;62749;51.982;5.916;2023-04-24T00:37:46;99679.72;;;9.95;91.25
74329;BME280;62749;51.982;5.916;2023-04-24T00:40:16;99687.19;;;10.03;91.12
74329;BME280;62749;51.982;5.916;2023-04-24T00:42:45;99686.19;;;10.06;91.20
74329;BME280;62749;51.982;5.916;2023-04-24T00:45:14;99687.28;;;10.02;91.53
74329;BME280;62749;51.982;5.916;2023-04-24T00:47:45;99680.72;;;10.09;91.80
74329;BME280;62749;51.982;5.916;2023-04-24T00:50:17;99677.94;;;9.96;91.08
74329;BME280;62749;51.982;5.916;2023-04-24T00:52:47;99684.50;;;9.89;91.22
74329;BME280;62749;51.982;5.916;2023-04-24T00:55:17;99697.28;;;9.80;92.53
74329;BME280;62749;51.982;5.916;2023-04-24T00:57:48;99690.28;;;9.79;93.08
74329;BME280;62749;51.982;5.916;2023-04-24T01:00:18;99686.56;;;9.83;93.42
74329;BME280;62749;51.982;5.916;2023-04-24T01:02:48;99688.75;;;9.75;94.16
74329;BME280;62749;51.982;5.916;2023-04-24T01:05:28;99680.41;;;9.83;94.71
74329;BME280;62749;51.982;5.916;2023-04-24T01:07:58;99686.03;;;9.93;94.60
74329;BME280;62749;51.982;5.916;2023-04-24T01:10:31;99681.94;;;9.87;94.23
74329;BME280;62749;51.982;5.916;2023-04-24T01:13:02;99684.94;;;9.97;93.67
74329;BME280;62749;51.982;5.916;2023-04-24T01:15:31;99690.88;;;10.01;93.40
74329;BME280;62749;51.982;5.916;2023-04-24T01:18:00;99687.06;;;9.90;92.60
74329;BME280;62749;51.982;5.916;2023-04-24T01:20:33;99682.44;;;9.94;92.94
74329;BME280;62749;51.982;5.916;2023-04-24T01:23:08;99679.22;;;10.05;92.56
74329;BME280;62749;51.982;5.916;2023-04-24T01:25:38;99684.66;;;10.02;92.14
74329;BME280;62749;51.982;5.916;2023-04-24T01:28:07;99686.69;;;10.12;91.88
74329;BME280;62749;51.982;5.916;2023-04-24T01:30:37;99678.78;;;10.12;90.96
74329;BME280;62749;51.982;5.916;2023-04-24T01:33:07;99683.84;;;10.16;90.88
74329;BME280;62749;51.982;5.916;2023-04-24T01:35:37;99679.78;;;10.10;91.53
74329;BME280;62749;51.982;5.916;2023-04-24T01:38:09;99680.72;;;10.09;92.05
74329;BME280;62749;51.982;5.916;2023-04-24T01:40:39;99684.00;;;9.98;92.12
74329;BME280;62749;51.982;5.916;2023-04-24T01:43:08;99676.63;;;10.03;92.32
74329;BME280;62749;51.982;5.916;2023-04-24T01:45:37;99679.22;;;10.05;92.29
74329;BME280;62749;51.982;5.916;2023-04-24T01:48:07;99674.88;;;10.04;92.02
74329;BME280;62749;51.982;5.916;2023-04-24T01:50:36;99678.72;;;9.98;92.47
74329;BME280;62749;51.982;5.916;2023-04-24T01:53:08;99690.69;;;9.88;93.82
74329;BME280;62749;51.982;5.916;2023-04-24T01:55:38;99690.69;;;9.88;94.86
74329;BME280;62749;51.982;5.916;2023-04-24T01:58:07;99683.81;;;9.85;95.63
74329;BME280;62749;51.982;5.916;2023-04-24T02:00:37;99676.00;;;9.83;96.64
74329;BME280;62749;51.982;5.916;2023-04-24T02:03:06;99681.13;;;9.87;96.54
74329;BME280;62749;51.982;5.916;2023-04-24T02:05:35;99676.16;;;9.80;96.54
74329;BME280;62749;51.982;5.916;2023-04-24T02:08:05;99684.84;;;9.82;96.78
74329;BME280;62749;51.982;5.916;2023-04-24T02:10:37;99676.00;;;9.83;96.77
74329;BME280;62749;51.982;5.916;2023-04-24T02:13:06;99682.97;;;9.85;97.00
74329;BME280;62749;51.982;5.916;2023-04-24T02:15:51;99675.06;;;9.85;97.07
74329;BME280;62749;51.982;5.916;2023-04-24T02:18:20;99676.41;;;9.92;97.11
74329;BME280;62749;51.982;5.916;2023-04-24T02:20:50;99681.53;;;9.79;96.92
74329;BME280;62749;51.982;5.916;2023-04-24T02:23:20;99673.28;;;9.69;96.63
74329;BME280;62749;51.982;5.916;2023-04-24T02:25:52;99663.16;;;9.61;96.37
74329;BME280;62749;51.982;5.916;2023-04-24T02:28:22;99671.69;;;9.66;96.67
74329;BME280;62749;51.982;5.916;2023-04-24T02:30:51;99668.78;;;9.71;96.52
74329;BME280;62749;51.982;5.916;2023-04-24T02:33:21;99673.13;;;9.72;96.33
74329;BME280;62749;51.982;5.916;2023-04-24T02:35:50;99669.72;;;9.70;96.22
74329;BME280;62749;51.982;5.916;2023-04-24T02:38:20;99682.13;;;9.68;95.99
74329;BME280;62749;51.982;5.916;2023-04-24T02:40:52;99678.41;;;9.72;96.42
74329;BME280;62749;51.982;5.916;2023-04-24T02:43:21;99675.75;;;9.72;96.46
74329;BME280;62749;51.982;5.916;2023-04-24T02:45:50;99673.19;;;9.71;95.91
74329;BME280;62749;51.982;5.916;2023-04-24T02:48:20;99664.97;;;9.61;96.73
74329;BME280;62749;51.982;5.916;2023-04-24T02:50:50;99670.75;;;9.67;96.67
74329;BME280;62749;51.982;5.916;2023-04-24T02:53:19;99673.28;;;9.69;96.52
74329;BME280;62749;51.982;5.916;2023-04-24T02:55:52;99676.69;;;9.71;96.37
74329;BME280;62749;51.982;5.916;2023-04-24T02:58:22;99663.59;;;9.70;96.31
74329;BME280;62749;51.982;5.916;2023-04-24T03:00:53;99680.50;;;9.81;96.13
74329;BME280;62749;51.982;5.916;2023-04-24T03:03:23;99686.13;;;9.75;95.63
74329;BME280;62749;51.982;5.916;2023-04-24T03:05:52;99683.22;;;9.64;96.01
74329;BME280;62749;51.982;5.916;2023-04-24T03:08:23;99681.31;;;9.67;96.83
74329;BME280;62749;51.982;5.916;2023-04-24T03:10:55;99683.69;;;9.72;96.78
74329;BME280;62749;51.982;5.916;2023-04-24T03:13:24;99689.78;;;9.73;96.79
74329;BME280;62749;51.982;5.916;2023-04-24T03:15:54;99682.22;;;9.66;96.76
74329;BME280;62749;51.982;5.916;2023-04-24T03:18:23;99682.03;;;9.70;97.31
74329;BME280;62749;51.982;5.916;2023-04-24T03:20:52;99676.59;;;9.73;97.17
74329;BME280;62749;51.982;5.916;2023-04-24T03:23:22;99686.72;;;9.80;97.15
74329;BME280;62749;51.982;5.916;2023-04-24T03:25:51;99685.63;;;9.85;97.37
74329;BME280;62749;51.982;5.916;2023-04-24T03:28:23;99692.88;;;9.81;97.22
74329;BME280;62749;51.982;5.916;2023-04-24T03:30:53;99688.59;;;9.78;97.34
74329;BME280;62749;51.982;5.916;2023-04-24T03:33:22;99697.53;;;9.60;96.79
74329;BME280;62749;51.982;5.916;2023-04-24T03:35:51;99702.56;;;9.64;97.20
74329;BME280;62749;51.982;5.916;2023-04-24T03:38:21;99698.66;;;9.56;97.40
74329;BME280;62749;51.982;5.916;2023-04-24T03:40:50;99697.63;;;9.58;96.86
74329;BME280;62749;51.982;5.916;2023-04-24T03:43:25;99709.03;;;9.59;96.80
74329;BME280;62749;51.982;5.916;2023-04-24T03:45:55;99699.66;;;9.53;96.79
74329;BME280;62749;51.982;5.916;2023-04-24T03:48:24;99704.84;;;9.55;97.14
74329;BME280;62749;51.982;5.916;2023-04-24T03:50:54;99696.94;;;9.55;96.77
74329;BME280;62749;51.982;5.916;2023-04-24T03:53:23;99699.66;;;9.53;96.99
74329;BME280;62749;51.982;5.916;2023-04-24T03:55:53;99708.41;;;9.54;96.61
74329;BME280;62749;51.982;5.916;2023-04-24T03:58:25;99705.63;;;9.57;96.78
74329;BME280;62749;51.982;5.916;2023-04-24T04:00:55;99708.34;;;9.55;96.06
74329;BME280;62749;51.982;5.916;2023-04-24T04:03:24;99708.06;;;9.44;96.32
74329;BME280;62749;51.982;5.916;2023-04-24T04:05:54;99709.09;;;9.41;96.62
74329;BME280;62749;51.982;5.916;2023-04-24T04:08:24;99709.88;;;9.43;96.55
74329;BME280;62749;51.982;5.916;2023-04-24T04:10:53;99714.38;;;9.41;95.83
74329;BME280;62749;51.982;5.916;2023-04-24T04:13:25;99713.13;;;9.48;96.07
74329;BME280;62749;51.982;5.916;2023-04-24T04:15:54;99713.75;;;9.36;95.73
74329;BME280;62749;51.982;5.916;2023-04-24T04:18:24;99719.88;;;9.36;96.01
74329;BME280;62749;51.982;5.916;2023-04-24T04:20:53;99719.97;;;9.35;95.94
74329;BME280;62749;51.982;5.916;2023-04-24T04:23:23;99715.97;;;9.28;96.16
74329;BME280;62749;51.982;5.916;2023-04-24T04:25:52;99717.00;;;9.41;96.15
74329;BME280;62749;51.982;5.916;2023-04-24T04:28:21;99713.69;;;9.38;95.68
74329;BME280;62749;51.982;5.916;2023-04-24T04:30:53;99719.88;;;9.36;95.91
74329;BME280;62749;51.982;5.916;2023-04-24T04:33:24;99718.44;;;9.31;95.36
74329;BME280;62749;51.982;5.916;2023-04-24T04:35:53;99709.59;;;9.32;95.60
74329;BME280;62749;51.982;5.916;2023-04-24T04:38:25;99717.03;;;9.24;95.76
74329;BME280;62749;51.982;5.916;2023-04-24T04:40:56;99705.56;;;9.25;96.24
74329;BME280;62749;51.982;5.916;2023-04-24T04:43:26;99710.28;;;9.35;95.43
74329;BME280;62749;51.982;5.916;2023-04-24T04:45:58;99717.03;;;9.24;95.65
74329;BME280;62749;51.982;5.916;2023-04-24T04:48:27;99701.75;;;9.14;96.17
74329;BME280;62749;51.982;5.916;2023-04-24T04:50:57;99715.25;;;9.08;95.91
74329;BME280;62749;51.982;5.916;2023-04-24T04:53:27;99706.84;;;9.17;96.20
74329;BME280;62749;51.982;5.916;2023-04-24T04:55:56;99720.81;;;9.19;95.59
74329;BME280;62749;51.982;5.916;2023-04-24T04:58:26;99716.13;;;9.25;95.57
74329;BME280;62749;51.982;5.916;2023-04-24T05:00:58;99723.88;;;9.28;95.83
74329;BME280;62749;51.982;5.916;2023-04-24T05:03:28;99721.38;;;9.25;95.78
74329;BME280;62749;51.982;5.916;2023-04-24T05:05:58;99719.34;;;9.14;96.48
74329;BME280;62749;51.982;5.916;2023-04-24T05:08:27;99720.41;;;9.27;96.96
74329;BME280;62749;51.982;5.916;2023-04-24T05:10:57;99730.84;;;9.29;96.98
74329;BME280;62749;51.982;5.916;2023-04-24T05:13:26;99727.25;;;9.14;97.04
74329;BME280;62749;51.982;5.916;2023-04-24T05:15:58;99730.47;;;9.19;96.91
74329;BME280;62749;51.982;5.916;2023-04-24T05:18:28;99724.63;;;9.14;97.33
74329;BME280;62749;51.982;5.916;2023-04-24T05:20:57;99721.56;;;9.21;97.42
74329;BME280;62749;51.982;5.916;2023-04-24T05:23:27;99734.66;;;9.23;97.50
74329;BME280;62749;51.982;5.916;2023-04-24T05:25:57;99742.84;;;9.34;97.35
74329;BME280;62749;51.982;5.916;2023-04-24T05:28:26;99751.94;;;9.29;97.13
74329;BME280;62749;51.982;5.916;2023-04-24T05:30:58;99752.69;;;9.31;97.19
74329;BME280;62749;51.982;5.916;2023-04-24T05:33:28;99751.63;;;9.35;96.79
74329;BME280;62749;51.982;5.916;2023-04-24T05:35:57;99759.34;;;9.38;97.06
74329;BME280;62749;51.982;5.916;2023-04-24T05:38:27;99760.19;;;9.39;97.13
74329;BME280;62749;51.982;5.916;2023-04-24T05:40:56;99767.75;;;9.29;96.49
74329;BME280;62749;51.982;5.916;2023-04-24T05:43:26;99769.31;;;9.15;96.52
74329;BME280;62749;51.982;5.916;2023-04-24T05:45:58;99773.66;;;9.16;96.81
74329;BME280;62749;51.982;5.916;2023-04-24T05:48:27;99773.22;;;9.08;96.88
74329;BME280;62749;51.982;5.916;2023-04-24T05:50:57;99779.69;;;9.18;96.95
74329;BME280;62749;51.982;5.916;2023-04-24T05:53:26;99784.81;;;9.21;96.97
74329;BME280;62749;51.982;5.916;2023-04-24T05:55:56;99785.16;;;9.31;96.91
74329;BME280;62749;51.982;5.916;2023-04-24T05:58:25;99790.28;;;9.34;96.92
74329;BME280;62749;51.982;5.916;2023-04-24T06:00:54;99790.13;;;9.38;96.90
74329;BME280;62749;51.982;5.916;2023-04-24T06:03:27;99787.41;;;9.39;96.77
74329;BME280;62749;51.982;5.916;2023-04-24T06:05:57;99792.41;;;9.44;96.93
74329;BME280;62749;51.982;5.916;2023-04-24T06:08:26;99793.19;;;9.46;96.68
74329;BME280;62749;51.982;5.916;2023-04-24T06:10:55;99804.75;;;9.43;96.48
74329;BME280;62749;51.982;5.916;2023-04-24T06:13:25;99804.16;;;9.38;96.54
74329;BME280;62749;51.982;5.916;2023-04-24T06:15:54;99811.59;;;9.47;96.69
74329;BME280;62749;51.982;5.916;2023-04-24T06:18:26;99817.78;;;9.46;96.28
74329;BME280;62749;51.982;5.916;2023-04-24T06:20:56;99816.88;;;9.47;96.40
74329;BME280;62749;51.982;5.916;2023-04-24T06:23:25;99813.44;;;9.45;96.30
74329;BME280;62749;51.982;5.916;2023-04-24T06:25:55;99819.09;;;9.55;96.58
74329;BME280;62749;51.982;5.916;2023-04-24T06:28:25;99827.69;;;9.59;96.32
74329;BME280;62749;51.982;5.916;2023-04-24T06:30:55;99829.63;;;9.55;96.06
74329;BME280;62749;51.982;5.916;2023-04-24T06:33:27;99833.78;;;9.59;96.05
74329;BME280;62749;51.982;5.916;2023-04-24T06:35:56;99850.25;;;9.64;96.39
74329;BME280;62749;51.982;5.916;2023-04-24T06:38:25;99853.72;;;9.65;96.40
74329;BME280;62749;51.982;5.916;2023-04-24T06:40:56;99845.81;;;9.65;95.98
74329;BME280;62749;51.982;5.916;2023-04-24T06:43:25;99846.16;;;9.59;95.88
74329;BME280;62749;51.982;5.916;2023-04-24T06:45:54;99851.41;;;9.59;95.74
74329;BME280;62749;51.982;5.916;2023-04-24T06:48:26;99863.94;;;9.71;95.86
74329;BME280;62749;51.982;5.916;2023-04-24T06:50:58;99855.41;;;9.66;95.71
74329;BME280;62749;51.982;5.916;2023-04-24T06:53:28;99868.00;;;9.61;95.82
74329;BME280;62749;51.982;5.916;2023-04-24T06:55:57;99870.00;;;9.73;96.18
74329;BME280;62749;51.982;5.916;2023-04-24T06:58:27;99865.00;;;9.85;96.05
74329;BME280;62749;51.982;5.916;2023-04-24T07:00:56;99874.00;;;9.80;95.73
74329;BME280;62749;51.982;5.916;2023-04-24T07:03:28;99873.16;;;9.80;95.92
74329;BME280;62749;51.982;5.916;2023-04-24T07:05:58;99869.34;;;9.86;96.00
74329;BME280;62749;51.982;5.916;2023-04-24T07:08:27;99876.47;;;9.83;96.03
74329;BME280;62749;51.982;5.916;2023-04-24T07:10:57;99872.03;;;9.84;95.95
74329;BME280;62749;51.982;5.916;2023-04-24T07:13:26;99888.38;;;9.75;95.88
74329;BME280;62749;51.982;5.916;2023-04-24T07:15:56;99893.13;;;9.68;95.98
74329;BME280;62749;51.982;5.916;2023-04-24T07:18:28;99891.75;;;9.61;95.60
74329;BME280;62749;51.982;5.916;2023-04-24T07:20:57;99897.22;;;9.56;95.85
74329;BME280;62749;51.982;5.916;2023-04-24T07:23:27;99913.28;;;9.51;96.01
74329;BME280;62749;51.982;5.916;2023-04-24T07:25:57;99913.31;;;9.34;96.59
74329;BME280;62749;51.982;5.916;2023-04-24T07:28:26;99915.78;;;9.37;96.96
74329;BME280;62749;51.982;5.916;2023-04-24T07:30:57;99908.91;;;9.34;97.09
74329;BME280;62749;51.982;5.916;2023-04-24T07:33:29;99906.50;;;9.47;97.44
74329;BME280;62749;51.982;5.916;2023-04-24T07:35:58;99920.75;;;9.43;97.19
74329;BME280;62749;51.982;5.916;2023-04-24T07:38:29;99928.66;;;9.43;97.65
74329;BME280;62749;51.982;5.916;2023-04-24T07:40:58;99938.44;;;9.41;97.65
74329;BME280;62749;51.982;5.916;2023-04-24T07:43:27;99951.84;;;9.36;97.59
74329;BME280;62749;51.982;5.916;2023-04-24T07:45:57;99953.94;;;9.30;97.39
74329;BME280;62749;51.982;5.916;2023-04-24T07:48:29;99960.00;;;9.32;97.44
74329;BME280;62749;51.982;5.916;2023-04-24T07:50:58;99963.69;;;9.28;97.27
74329;BME280;62749;51.982;5.916;2023-04-24T07:53:27;99962.19;;;9.04;97.09
74329;BME280;62749;51.982;5.916;2023-04-24T07:55:57;99975.59;;;9.00;97.18
74329;BME280;62749;51.982;5.916;2023-04-24T07:58:26;99990.00;;;8.93;97.19
74329;BME280;62749;51.982;5.916;2023-04-24T08:00:55;99986.81;;;8.86;97.21
74329;BME280;62749;51.982;5.916;2023-04-24T08:03:25;99994.97;;;8.99;97.23
74329;BME280;62749;51.982;5.916;2023-04-24T08:05:57;100006.81;;;8.90;96.67
74329;BME280;62749;51.982;5.916;2023-04-24T08:08:26;100019.91;;;8.92;96.41
74329;BME280;62749;51.982;5.916;2023-04-24T08:10:56;100023.59;;;8.87;96.90
74329;BME280;62749;51.982;5.916;2023-04-24T08:13:25;100028.66;;;8.92;96.83
74329;BME280;62749;51.982;5.916;2023-04-24T08:15:56;100041.81;;;8.92;96.71
74329;BME280;62749;51.982;5.916;2023-04-24T08:18:25;100043.88;;;8.85;97.06
74329;BME280;62749;51.982;5.916;2023-04-24T08:20:57;100057.84;;;8.87;96.98
74329;BME280;62749;51.982;5.916;2023-04-24T08:23:27;100059.34;;;8.74;96.93
74329;BME280;62749;51.982;5.916;2023-04-24T08:25:57;100064.47;;;8.77;96.73
74329;BME280;62749;51.982;5.916;2023-04-24T08:28:27;100075.72;;;8.81;96.85
74329;BME280;62749;51.982;5.916;2023-04-24T08:30:57;100087.50;;;8.72;96.77
74329;BME280;62749;51.982;5.916;2023-04-24T08:33:26;100075.81;;;8.58;96.25
74329;BME280;62749;51.982;5.916;2023-04-24T08:36:04;100094.91;;;8.64;96.71
74329;BME280;62749;51.982;5.916;2023-04-24T08:38:34;100112.78;;;8.76;96.59
74329;BME280;62749;51.982;5.916;2023-04-24T08:41:04;100110.16;;;8.76;96.31
74329;BME280;62749;51.982;5.916;2023-04-24T08:43:35;100109.16;;;8.79;96.63
74329;BME280;62749;51.982;5.916;2023-04-24T08:46:05;100119.13;;;8.72;96.14
74329;BME280;62749;51.982;5.916;2023-04-24T08:48:35;100124.94;;;8.59;96.76
74329;BME280;62749;51.982;5.916;2023-04-24T08:51:08;100130.06;;;8.63;97.05
74329;BME280;62749;51.982;5.916;2023-04-24T08:53:40;100135.88;;;8.71;97.22
74329;BME280;62749;51.982;5.916;2023-04-24T08:56:11;100145.31;;;8.75;97.22
74329;BME280;62749;51.982;5.916;2023-04-24T08:58:41;100139.81;;;8.60;96.93
74329;BME280;62749;51.982;5.916;2023-04-24T09:01:12;100144.88;;;8.65;97.42
74329;BME280;62749;51.982;5.916;2023-04-24T09:03:42;100151.13;;;8.63;97.23
74329;BME280;62749;51.982;5.916;2023-04-24T09:06:16;100153.75;;;8.63;96.70
74329;BME280;62749;51.982;5.916;2023-04-24T09:08:50;100160.75;;;8.64;96.98
74329;BME280;62749;51.982;5.916;2023-04-24T09:11:22;100174.81;;;8.63;97.15
74329;BME280;62749;51.982;5.916;2023-04-24T09:13:54;100159.66;;;8.49;97.00
74329;BME280;62749;51.982;5.916;2023-04-24T09:16:24;100181.81;;;8.64;96.69
74329;BME280;62749;51.982;5.916;2023-04-24T09:18:55;100185.31;;;8.64;96.40
74329;BME280;62749;51.982;5.916;2023-04-24T09:21:34;100188.91;;;8.62;96.75
74329;BME280;62749;51.982;5.916;2023-04-24T09:24:09;100202.28;;;8.57;95.31
74329;BME280;62749;51.982;5.916;2023-04-24T09:26:44;100203.34;;;8.73;95.60
74329;BME280;62749;51.982;5.916;2023-04-24T09:29:18;100207.00;;;8.69;95.11
74329;BME280;62749;51.982;5.916;2023-04-24T09:31:47;100206.00;;;8.72;95.73
74329;BME280;62749;51.982;5.916;2023-04-24T09:34:22;100209.19;;;8.80;94.92
74329;BME280;62749;51.982;5.916;2023-04-24T09:36:54;100226.84;;;8.78;94.15
74329;BME280;62749;51.982;5.916;2023-04-24T09:39:24;100229.06;;;8.87;93.92
74329;BME280;62749;51.982;5.916;2023-04-24T09:41:54;100227.41;;;8.85;93.93
74329;BME280;62749;51.982;5.916;2023-04-24T09:44:27;100230.84;;;8.87;92.37
74329;BME280;62749;51.982;5.916;2023-04-24T09:46:58;100240.47;;;8.88;91.54
74329;BME280;62749;51.982;5.916;2023-04-24T09:49:29;100250.13;;;8.87;91.30
74329;BME280;62749;51.982;5.916;2023-04-24T09:52:06;100241.25;;;8.90;91.23
74329;BME280;62749;51.982;5.916;2023-04-24T09:54:36;100259.75;;;9.09;90.73
74329;BME280;62749;51.982;5.916;2023-04-24T09:57:08;100258.16;;;9.05;89.53
74329;BME280;62749;51.982;5.916;2023-04-24T09:59:42;100264.94;;;9.11;87.73
74329;BME280;62749;51.982;5.916;2023-04-24T10:02:17;100267.09;;;9.21;89.36
74329;BME280;62749;51.982;5.916;2023-04-24T10:04:54;100271.03;;;9.32;90.04
74329;BME280;62749;51.982;5.916;2023-04-24T10:07:28;100272.31;;;9.42;88.69
74329;BME280;62749;51.982;5.916;2023-04-24T10:09:58;100282.19;;;9.58;89.15
74329;BME280;62749;51.982;5.916;2023-04-24T10:12:29;100292.59;;;9.61;87.63
74329;BME280;62749;51.982;5.916;2023-04-24T10:15:00;100289.75;;;9.65;87.61
74329;BME280;62749;51.982;5.916;2023-04-24T10:17:30;100285.44;;;9.63;86.28
74329;BME280;62749;51.982;5.916;2023-04-24T10:20:00;100284.16;;;9.72;85.30
74329;BME280;62749;51.982;5.916;2023-04-24T10:22:32;100278.59;;;9.97;86.80
74329;BME280;62749;51.982;5.916;2023-04-24T10:25:04;100282.50;;;10.07;84.01
74329;BME280;62749;51.982;5.916;2023-04-24T10:27:34;100285.66;;;10.33;85.11
74329;BME280;62749;51.982;5.916;2023-04-24T10:30:06;100286.44;;;10.35;81.33
74329;BME280;62749;51.982;5.916;2023-04-24T10:32:36;100298.19;;;10.47;80.07
74329;BME280;62749;51.982;5.916;2023-04-24T10:35:07;100291.69;;;10.54;81.11
74329;BME280;62749;51.982;5.916;2023-04-24T10:37:42;100301.47;;;10.52;81.75
74329;BME280;62749;51.982;5.916;2023-04-24T10:40:17;100293.66;;;10.32;78.46
74329;BME280;62749;51.982;5.916;2023-04-24T10:42:48;100310.22;;;10.35;81.38
74329;BME280;62749;51.982;5.916;2023-04-24T10:45:18;100314.06;;;10.28;76.56
74329;BME280;62749;51.982;5.916;2023-04-24T10:47:52;100308.44;;;10.17;76.90
74329;BME280;62749;51.982;5.916;2023-04-24T10:50:22;100320.66;;;10.19;77.32
74329;BME280;62749;51.982;5.916;2023-04-24T10:53:06;100323.34;;;10.18;76.86
74329;BME280;62749;51.982;5.916;2023-04-24T10:55:44;100328.84;;;10.13;76.82
74329;BME280;62749;51.982;5.916;2023-04-24T10:58:15;100335.41;;;10.23;79.77
74329;BME280;62749;51.982;5.916;2023-04-24T11:00:55;100339.84;;;10.04;76.47
74329;BME280;62749;51.982;5.916;2023-04-24T11:03:29;100335.53;;;10.20;77.03
74329;BME280;62749;51.982;5.916;2023-04-24T11:06:00;100345.91;;;10.25;78.12
74329;BME280;62749;51.982;5.916;2023-04-24T11:08:38;100340.47;;;10.09;77.70
74329;BME280;62749;51.982;5.916;2023-04-24T11:11:10;100338.78;;;9.89;77.50
74329;BME280;62749;51.982;5.916;2023-04-24T11:14:02;100355.16;;;9.76;78.26
74329;BME280;62749;51.982;5.916;2023-04-24T11:16:35;100359.28;;;9.63;77.53
74329;BME280;62749;51.982;5.916;2023-04-24T11:19:07;100362.84;;;9.62;78.22
74329;BME280;62749;51.982;5.916;2023-04-24T11:21:42;100359.03;;;9.88;78.63
74329;BME280;62749;51.982;5.916;2023-04-24T11:24:29;100370.25;;;9.93;76.73
74329;BME280;62749;51.982;5.916;2023-04-24T11:27:04;100375.94;;;10.03;76.65
74329;BME280;62749;51.982;5.916;2023-04-24T11:29:46;100378.16;;;9.74;73.88
74329;BME280;62749;51.982;5.916;2023-04-24T11:32:28;100382.47;;;9.75;74.32
74329;BME280;62749;51.982;5.916;2023-04-24T11:35:00;100382.91;;;9.85;73.60
74329;BME280;62749;51.982;5.916;2023-04-24T11:37:34;100385.69;;;10.01;74.19
74329;BME280;62749;51.982;5.916;2023-04-24T11:40:08;100392.50;;;10.26;74.30
74329;BME280;62749;51.982;5.916;2023-04-24T11:42:39;100388.19;;;10.23;73.97
74329;BME280;62749;51.982;5.916;2023-04-24T11:45:11;100393.22;;;10.49;72.62
74329;BME280;62749;51.982;5.916;2023-04-24T11:47:41;100392.34;;;10.48;71.93
74329;BME280;62749;51.982;5.916;2023-04-24T11:50:13;100397.63;;;10.48;71.37
74329;BME280;62749;51.982;5.916;2023-04-24T11:52:45;100383.94;;;10.40;71.27
74329;BME280;62749;51.982;5.916;2023-04-24T11:55:35;100394.28;;;10.44;73.53
74329;BME280;62749;51.982;5.916;2023-04-24T11:58:05;100389.56;;;10.32;71.69
74329;BME280;62749;51.982;5.916;2023-04-24T12:00:35;100402.28;;;10.24;71.29
74329;BME280;62749;51.982;5.916;2023-04-24T12:03:06;100420.22;;;10.16;72.12
74329;BME280;62749;51.982;5.916;2023-04-24T12:05:36;100420.41;;;10.12;73.66
74329;BME280;62749;51.982;5.916;2023-04-24T12:08:06;100432.81;;;10.10;75.45
74329;BME280;62749;51.982;5.916;2023-04-24T12:10:38;100435.66;;;10.06;78.81
74329;BME280;62749;51.982;5.916;2023-04-24T12:13:09;100453.69;;;9.75;79.40
74329;BME280;62749;51.982;5.916;2023-04-24T12:15:40;100445.41;;;9.64;79.86
74329;BME280;62749;51.982;5.916;2023-04-24T12:18:12;100438.34;;;9.64;81.54
74329;BME280;62749;51.982;5.916;2023-04-24T12:20:43;100438.13;;;9.90;80.53
74329;BME280;62749;51.982;5.916;2023-04-24T12:23:12;100447.97;;;9.65;80.20
74329;BME280;62749;51.982;5.916;2023-04-24T12:25:44;100449.88;;;9.82;81.82
74329;BME280;62749;51.982;5.916;2023-04-24T12:28:13;100448.41;;;9.96;80.77
74329;BME280;62749;51.982;5.916;2023-04-24T12:30:46;100442.41;;;9.92;77.71
74329;BME280;62749;51.982;5.916;2023-04-24T12:33:17;100446.63;;;10.16;76.09
74329;BME280;62749;51.982;5.916;2023-04-24T12:35:48;100454.50;;;10.17;75.39
74329;BME280;62749;51.982;5.916;2023-04-24T12:38:22;100462.81;;;10.48;72.95
74329;BME280;62749;51.982;5.916;2023-04-24T12:41:05;100468.34;;;10.61;70.58
74329;BME280;62749;51.982;5.916;2023-04-24T12:43:36;100454.81;;;10.49;71.13
74329;BME280;62749;51.982;5.916;2023-04-24T12:46:05;100478.22;;;10.38;71.33
74329;BME280;62749;51.982;5.916;2023-04-24T12:48:35;100458.53;;;10.45;73.70
74329;BME280;62749;51.982;5.916;2023-04-24T12:51:04;100473.81;;;10.57;73.19
74329;BME280;62749;51.982;5.916;2023-04-24T12:53:34;100475.50;;;10.39;71.42
74329;BME280;62749;51.982;5.916;2023-04-24T12:56:06;100482.22;;;10.47;72.99
74329;BME280;62749;51.982;5.916;2023-04-24T12:58:35;100476.38;;;10.59;71.70
74329;BME280;62749;51.982;5.916;2023-04-24T13:01:05;100476.25;;;10.80;71.53
74329;BME280;62749;51.982;5.916;2023-04-24T13:03:35;100472.78;;;10.79;70.96
74329;BME280;62749;51.982;5.916;2023-04-24T13:06:04;100478.97;;;10.97;69.65
74329;BME280;62749;51.982;5.916;2023-04-24T13:08:34;100484.53;;;10.91;69.52
74329;BME280;62749;51.982;5.916;2023-04-24T13:11:06;100483.84;;;10.68;69.99
74329;BME280;62749;51.982;5.916;2023-04-24T13:13:56;100494.41;;;10.68;70.95
74329;BME280;62749;51.982;5.916;2023-04-24T13:16:25;100487.38;;;10.69;71.52
74329;BME280;62749;51.982;5.916;2023-04-24T13:18:54;100481.50;;;10.62;70.82
74329;BME280;62749;51.982;5.916;2023-04-24T13:21:24;100489.69;;;10.75;69.82
74329;BME280;62749;51.982;5.916;2023-04-24T13:23:54;100491.63;;;10.71;69.08